Time;durP1;ratioP1;P1;durP2;ratioP2;P2;SDS_P1;SDS_P2;PMS_P1;PMS_P2;Temp;Humidity;BMP_temperature;BMP_pressure;BME280_temperature;BME280_humidity;BME280_pressure;Samples;Min_cycle;Max_cycle;Signal;HPM_P1;HPM_P2
2022/04/08 00:01:27;;;;;;;2.00;0.83;;;;;;;6.28;81.61;98174.41;5097266;28;20214;-80
2022/04/08 00:03:56;;;;;;;3.23;0.90;;;;;;;6.28;82.25;98153.69;5086329;28;20257;-79
2022/04/08 00:06:23;;;;;;;2.87;1.30;;;;;;;6.15;83.24;98124.81;5095157;28;20204;-79
2022/04/08 00:08:50;;;;;;;1.13;0.80;;;;;;;6.05;83.49;98100.19;5097040;28;20216;-79
2022/04/08 00:11:17;;;;;;;3.40;1.13;;;;;;;5.89;85.39;98059.31;5096673;28;20280;-78
2022/04/08 00:13:44;;;;;;;2.20;1.10;;;;;;;5.81;86.61;98014.75;5096753;28;20200;-79
2022/04/08 00:16:11;;;;;;;4.17;1.40;;;;;;;5.80;87.06;98009.63;5097163;28;20207;-78
2022/04/08 00:18:39;;;;;;;2.30;1.23;;;;;;;5.80;86.93;98032.94;5097134;28;20204;-79
2022/04/08 00:21:07;;;;;;;2.13;1.03;;;;;;;5.71;87.31;98001.31;5097502;28;20227;-79
2022/04/08 00:23:34;;;;;;;2.20;1.10;;;;;;;5.77;87.34;98002.84;5096961;28;20459;-79
2022/04/08 00:26:00;;;;;;;1.70;0.90;;;;;;;5.80;86.92;98018.22;5097547;28;20212;-79
2022/04/08 00:28:27;;;;;;;3.33;0.90;;;;;;;5.81;86.93;98032.88;5097518;28;20232;-80
2022/04/08 00:30:53;;;;;;;1.50;0.87;;;;;;;5.84;86.59;98053.44;5098092;28;20254;-80
2022/04/08 00:33:20;;;;;;;3.00;0.97;;;;;;;5.91;87.49;98062.69;5092614;28;20208;-80
2022/04/08 00:35:46;;;;;;;5.67;1.13;;;;;;;5.90;88.26;98037.69;5088032;28;20208;-80
2022/04/08 00:38:14;;;;;;;2.87;1.17;;;;;;;5.79;91.05;97977.72;5081141;28;20663;-79
2022/04/08 00:40:41;;;;;;;2.77;1.40;;;;;;;5.46;93.65;97903.09;5080121;28;20228;-80
2022/04/08 00:43:12;;;;;;;2.53;1.27;;;;;;;5.18;95.22;97860.19;5080106;28;20262;-81
2022/04/08 00:45:39;;;;;;;3.50;1.40;;;;;;;5.14;95.80;97822.44;5080319;28;20212;-79
2022/04/08 00:48:07;;;;;;;3.70;1.50;;;;;;;5.16;96.52;97810.28;5081453;28;20787;-79
2022/04/08 00:50:34;;;;;;;1.27;0.77;;;;;;;5.31;93.64;97863.16;5097827;28;20704;-78
2022/04/08 00:53:01;;;;;;;2.17;1.13;;;;;;;5.42;92.88;97927.41;5101158;28;20225;-79
2022/04/08 00:55:29;;;;;;;2.97;0.70;;;;;;;5.47;91.06;97971.19;5101433;28;20265;-79
2022/04/08 00:57:55;;;;;;;0.90;0.70;;;;;;;5.20;91.13;97988.59;5100990;28;20204;-79
2022/04/08 01:00:24;;;;;;;1.07;0.67;;;;;;;5.05;93.65;97928.78;5100519;28;20724;-78
2022/04/08 01:02:50;;;;;;;2.00;0.70;;;;;;;4.95;93.61;97912.75;5102189;28;20204;-79
2022/04/08 01:05:17;;;;;;;1.10;0.60;;;;;;;4.92;94.67;97902.56;5095363;28;20201;-80
2022/04/08 01:07:43;;;;;;;1.33;1.00;;;;;;;4.95;94.53;97893.84;5087388;28;20228;-80
2022/04/08 01:10:10;;;;;;;3.00;1.10;;;;;;;4.90;95.68;97872.50;5085945;28;20228;-80
2022/04/08 01:12:38;;;;;;;2.37;1.20;;;;;;;4.96;96.79;97856.75;5080995;28;20209;-80
2022/04/08 01:15:05;;;;;;;2.87;1.10;;;;;;;4.95;97.43;97842.13;5082623;28;20205;-80
2022/04/08 01:17:32;;;;;;;2.73;1.60;;;;;;;4.95;98.29;97834.38;5082366;28;20200;-77
2022/04/08 01:19:58;;;;;;;3.73;1.30;;;;;;;5.02;97.68;97835.00;5091607;28;20276;-80
2022/04/08 01:22:26;;;;;;;2.17;1.10;;;;;;;5.06;96.75;97860.69;5099756;28;20734;-79
2022/04/08 01:25:00;;;;;;;1.57;0.83;;;;;;;5.13;95.12;97897.47;5099949;28;20677;-80
2022/04/08 01:27:28;;;;;;;3.67;1.10;;;;;;;5.20;94.82;97913.63;5100238;28;20223;-79
2022/04/08 01:29:54;;;;;;;4.17;1.10;;;;;;;5.18;94.59;97930.00;5100784;28;20227;-79
2022/04/08 01:32:20;;;;;;;3.30;1.00;;;;;;;5.28;93.11;97973.66;5100939;28;20200;-79
2022/04/08 01:34:49;;;;;;;2.90;0.90;;;;;;;5.29;92.31;97986.53;5089821;28;20272;-79
2022/04/08 01:37:15;;;;;;;1.23;0.80;;;;;;;5.33;92.33;98007.94;5080944;28;20204;-78
2022/04/08 01:39:42;;;;;;;2.23;0.90;;;;;;;5.31;92.13;98013.19;5079223;28;20278;-78
2022/04/08 01:42:10;;;;;;;2.43;0.80;;;;;;;5.31;92.05;98018.34;5077836;28;20251;-79
2022/04/08 01:44:37;;;;;;;3.07;1.10;;;;;;;5.28;92.12;98038.31;5077570;28;20209;-78
2022/04/08 01:47:05;;;;;;;3.53;0.97;;;;;;;5.24;93.16;98044.50;5078778;28;20201;-79
2022/04/08 01:49:31;;;;;;;3.17;1.23;;;;;;;5.21;93.79;98014.38;5087176;28;20266;-80
2022/04/08 01:51:58;;;;;;;3.10;1.10;;;;;;;5.11;95.61;98007.88;5098340;28;20684;-79
2022/04/08 01:54:25;;;;;;;2.20;1.47;;;;;;;4.98;97.33;97969.53;5099082;28;20236;-79
2022/04/08 01:56:51;;;;;;;3.27;1.30;;;;;;;5.00;98.40;97942.81;5098502;28;20208;-80
2022/04/08 01:59:19;;;;;;;3.70;1.23;;;;;;;4.83;98.88;97954.56;5099022;28;20269;-79
2022/04/08 02:01:45;;;;;;;4.03;1.47;;;;;;;4.69;100.00;97934.38;5097818;28;20263;-79
2022/04/08 02:04:12;;;;;;;0.87;0.50;;;;;;;4.51;100.00;97941.06;5088443;28;20666;-78
2022/04/08 02:06:40;;;;;;;0.97;0.70;;;;;;;4.24;98.08;97958.34;5076962;28;20200;-80
2022/04/08 02:09:08;;;;;;;1.87;0.90;;;;;;;4.10;97.46;97994.94;5076602;28;20773;-79
2022/04/08 02:11:34;;;;;;;2.87;0.97;;;;;;;4.08;98.25;97995.88;5077649;28;20208;-79
2022/04/08 02:14:01;;;;;;;2.10;0.87;;;;;;;3.96;97.87;97994.53;5078967;28;20204;-79
2022/04/08 02:16:29;;;;;;;2.93;0.77;;;;;;;3.83;98.88;97985.50;5079157;28;20262;-79
2022/04/08 02:18:55;;;;;;;1.27;0.63;;;;;;;3.78;99.23;97983.88;5082839;28;20214;-79
2022/04/08 02:21:21;;;;;;;1.33;0.77;;;;;;;3.71;99.28;97976.41;5102161;28;20227;-79
2022/04/08 02:23:49;;;;;;;1.73;0.90;;;;;;;3.75;99.36;97973.66;5108798;28;20248;-78
2022/04/08 02:26:16;;;;;;;2.83;1.17;;;;;;;3.80;99.37;97983.00;5107309;28;20200;-79
2022/04/08 02:28:43;;;;;;;3.57;0.83;;;;;;;3.85;99.50;97989.72;5108281;28;20227;-78
2022/04/08 02:31:09;;;;;;;2.77;1.10;;;;;;;3.91;99.24;98009.31;5107519;28;20227;-78
2022/04/08 02:33:37;;;;;;;2.03;1.00;;;;;;;3.86;99.36;98018.94;5100845;28;20210;-78
2022/04/08 02:36:05;;;;;;;2.73;1.07;;;;;;;3.85;99.40;98019.84;5095711;28;20208;-79
2022/04/08 02:38:31;;;;;;;4.63;1.03;;;;;;;3.85;99.68;98018.09;5089823;28;20204;-78
2022/04/08 02:40:58;;;;;;;2.80;1.03;;;;;;;3.85;99.61;98017.25;5090701;28;20278;-79
2022/04/08 02:43:25;;;;;;;2.97;1.03;;;;;;;3.88;99.72;98012.81;5079276;28;20208;-79
2022/04/08 02:45:51;;;;;;;3.00;1.30;;;;;;;3.85;100.00;98009.53;5078218;28;20212;-79
2022/04/08 02:48:18;;;;;;;2.87;1.40;;;;;;;3.88;100.00;98009.41;5076462;28;20285;-79
2022/04/08 02:50:46;;;;;;;1.20;1.07;;;;;;;3.90;99.86;98025.69;5096886;28;20232;-79
2022/04/08 02:53:13;;;;;;;2.43;1.40;;;;;;;3.98;99.84;98027.16;5097117;28;20208;-78
2022/04/08 02:55:39;;;;;;;2.93;1.30;;;;;;;4.03;99.69;98049.41;5097034;28;20617;-78
2022/04/08 02:58:06;;;;;;;2.93;1.20;;;;;;;4.00;100.00;98054.63;5096018;28;20197;-78
2022/04/08 03:00:32;;;;;;;1.60;1.40;;;;;;;4.02;99.64;98063.19;5095317;28;20233;-78
2022/04/08 03:02:59;;;;;;;3.97;1.43;;;;;;;4.03;99.87;98064.88;5089424;28;20254;-78
2022/04/08 03:05:25;;;;;;;4.50;1.60;;;;;;;4.06;100.00;98072.50;5085730;28;20199;-79
2022/04/08 03:07:53;;;;;;;1.50;0.97;;;;;;;4.09;99.42;98081.03;5077713;28;20694;-80
2022/04/08 03:10:19;;;;;;;2.03;1.10;;;;;;;4.11;100.00;98075.81;5077337;28;20231;-78
2022/04/08 03:12:46;;;;;;;2.17;1.43;;;;;;;4.08;100.00;98071.56;5077335;28;20614;-78
2022/04/08 03:15:12;;;;;;;1.80;1.10;;;;;;;4.07;99.68;98085.38;5075939;28;20634;-79
2022/04/08 03:17:39;;;;;;;2.57;1.00;;;;;;;4.04;99.46;98095.78;5077005;28;20200;-79
2022/04/08 03:20:07;;;;;;;1.80;1.00;;;;;;;4.03;98.97;98108.75;5089292;28;20228;-79
2022/04/08 03:22:33;;;;;;;3.20;1.00;;;;;;;3.95;98.82;98120.16;5097515;28;20211;-79
2022/04/08 03:25:01;;;;;;;0.80;0.80;;;;;;;3.97;98.10;98140.75;5096733;28;20208;-78
2022/04/08 03:27:28;;;;;;;1.23;0.73;;;;;;;4.02;96.93;98159.53;5095888;28;20666;-76
2022/04/08 03:29:54;;;;;;;1.70;0.90;;;;;;;4.03;96.72;98192.19;5097142;28;20229;-77
2022/04/08 03:32:21;;;;;;;2.07;1.10;;;;;;;4.03;97.19;98181.88;5095974;28;20209;-79
2022/04/08 03:34:47;;;;;;;1.67;0.80;;;;;;;3.96;97.64;98185.50;5086741;28;20210;-78
2022/04/08 03:37:16;;;;;;;1.33;1.17;;;;;;;3.98;97.33;98186.31;5077770;28;20673;-79
2022/04/08 03:39:43;;;;;;;1.90;0.90;;;;;;;4.03;97.28;98197.38;5078040;28;20223;-80
2022/04/08 03:42:10;;;;;;;2.47;1.60;;;;;;;3.98;96.84;98205.25;5076288;28;20388;-80
2022/04/08 03:44:37;;;;;;;3.00;1.17;;;;;;;4.01;97.10;98209.47;5077770;28;20205;-79
2022/04/08 03:47:04;;;;;;;1.87;1.30;;;;;;;4.03;97.59;98205.09;5077814;28;20255;-80
2022/04/08 03:49:33;;;;;;;2.13;1.50;;;;;;;4.07;97.91;98200.72;5086753;28;20231;-80
2022/04/08 03:52:00;;;;;;;2.43;1.33;;;;;;;4.11;97.81;98195.41;5098245;28;20208;-80
2022/04/08 03:54:27;;;;;;;1.93;1.20;;;;;;;4.11;97.89;98191.97;5097850;28;20242;-79
2022/04/08 03:56:53;;;;;;;1.53;0.70;;;;;;;4.04;97.16;98213.69;5097483;28;20249;-78
2022/04/08 03:59:22;;;;;;;0.70;0.70;;;;;;;3.96;97.92;98212.19;5097251;28;20224;-80
2022/04/08 04:01:49;;;;;;;0.80;0.80;;;;;;;3.94;98.71;98202.78;5097093;28;20206;-79
2022/04/08 04:04:16;;;;;;;1.07;0.87;;;;;;;3.94;99.15;98184.72;5088798;28;20242;-79
2022/04/08 04:06:42;;;;;;;1.23;0.70;;;;;;;3.84;99.06;98186.72;5079831;28;20238;-79
2022/04/08 04:09:09;;;;;;;1.43;0.77;;;;;;;3.84;98.53;98194.44;5080824;28;20278;-79
2022/04/08 04:11:36;;;;;;;1.33;1.00;;;;;;;3.87;98.35;98196.13;5080207;28;20205;-79
2022/04/08 04:14:02;;;;;;;1.20;1.10;;;;;;;3.89;98.96;98202.91;5079946;28;20224;-79
2022/04/08 04:16:30;;;;;;;1.33;1.20;;;;;;;3.90;98.90;98202.00;5080350;28;20672;-79
2022/04/08 04:18:56;;;;;;;1.20;1.10;;;;;;;3.97;97.79;98229.34;5085852;28;20207;-78
2022/04/08 04:21:23;;;;;;;0.97;0.87;;;;;;;4.07;97.45;98244.59;5099845;28;20207;-79
2022/04/08 04:23:49;;;;;;;1.43;1.30;;;;;;;4.08;97.48;98257.44;5100699;28;20669;-78
2022/04/08 04:26:16;;;;;;;0.90;0.90;;;;;;;4.04;98.06;98263.56;5100978;28;20211;-79
2022/04/08 04:28:42;;;;;;;1.47;1.00;;;;;;;3.96;98.72;98252.63;5101134;28;20227;-79
2022/04/08 04:31:09;;;;;;;1.20;1.10;;;;;;;3.92;99.63;98235.53;5100319;28;20706;-79
2022/04/08 04:33:36;;;;;;;1.10;1.10;;;;;;;3.90;99.52;98239.88;5092151;28;20568;-78
2022/04/08 04:36:03;;;;;;;0.83;0.80;;;;;;;3.88;99.22;98246.81;5085933;28;20283;-78
2022/04/08 04:38:29;;;;;;;1.23;0.93;;;;;;;3.91;98.11;98275.97;5080233;28;20211;-78
2022/04/08 04:40:56;;;;;;;1.87;0.90;;;;;;;3.95;97.16;98311.16;5079805;28;20229;-79
2022/04/08 04:43:22;;;;;;;0.50;0.50;;;;;;;3.94;96.46;98343.03;5080378;28;20213;-79
2022/04/08 04:45:49;;;;;;;0.57;0.40;;;;;;;3.98;95.20;98385.06;5077736;28;20261;-78
2022/04/08 04:48:16;;;;;;;0.50;0.50;;;;;;;4.03;95.71;98418.53;5078378;28;20274;-79
2022/04/08 04:50:46;;;;;;;0.40;0.40;;;;;;;3.91;95.08;98442.91;5098183;28;20231;-79
2022/04/08 04:53:13;;;;;;;0.60;0.50;;;;;;;3.79;94.52;98469.84;5100343;28;20203;-80
2022/04/08 04:55:39;;;;;;;1.47;0.97;;;;;;;3.59;92.11;98545.13;5100790;28;20257;-78
2022/04/08 04:58:06;;;;;;;1.10;0.50;;;;;;;3.50;91.19;98584.00;5099396;28;20261;-80
2022/04/08 05:00:33;;;;;;;0.60;0.40;;;;;;;3.38;91.57;98582.50;5099469;28;20228;-80
2022/04/08 05:03:01;;;;;;;1.27;0.80;;;;;;;3.30;90.71;98589.53;5093416;28;20207;-78
2022/04/08 05:05:27;;;;;;;1.50;0.73;;;;;;;3.24;88.75;98664.44;5088100;28;20208;-79
2022/04/08 05:07:55;;;;;;;4.10;1.00;;;;;;;3.15;87.17;98730.75;5080156;28;20207;-80
2022/04/08 05:10:21;;;;;;;1.53;0.40;;;;;;;2.82;88.27;98716.69;5079533;28;20284;-79
2022/04/08 05:12:48;;;;;;;1.77;0.47;;;;;;;2.48;89.81;98646.78;5079234;28;20616;-80
2022/04/08 05:15:14;;;;;;;0.63;0.30;;;;;;;2.45;91.67;98601.34;5079481;28;20212;-79
2022/04/08 05:17:42;;;;;;;0.90;0.73;;;;;;;2.55;93.31;98550.53;5079566;28;20278;-79
2022/04/08 05:20:09;;;;;;;0.40;0.40;;;;;;;2.59;94.70;98504.06;5093839;28;20264;-80
2022/04/08 05:22:36;;;;;;;1.30;0.50;;;;;;;2.74;93.95;98502.97;5100251;28;20275;-78
2022/04/08 05:25:04;;;;;;;0.50;0.30;;;;;;;2.83;93.43;98527.69;5100055;28;20219;-79
2022/04/08 05:27:37;;;;;;;1.50;0.40;;;;;;;2.90;92.78;98546.50;5099990;28;20240;-79
2022/04/08 05:30:07;;;;;;;0.87;0.53;;;;;;;2.95;93.15;98537.81;5100296;28;20317;-78
2022/04/08 05:32:33;;;;;;;0.30;0.30;;;;;;;2.89;93.96;98521.59;5097556;28;20212;-79
2022/04/08 05:35:00;;;;;;;1.63;0.50;;;;;;;2.92;95.00;98506.06;5088125;28;20268;-79
2022/04/08 05:37:28;;;;;;;0.50;0.50;;;;;;;2.96;94.63;98502.56;5080243;28;20202;-80
2022/04/08 05:39:55;;;;;;;0.90;0.67;;;;;;;2.98;94.40;98504.22;5078954;28;20703;-79
2022/04/08 05:42:23;;;;;;;2.10;0.80;;;;;;;3.01;94.45;98516.19;5079365;28;20216;-80
2022/04/08 05:44:49;;;;;;;1.70;0.83;;;;;;;3.09;94.11;98518.63;5079487;28;20206;-79
2022/04/08 05:47:16;;;;;;;1.70;0.80;;;;;;;3.12;94.17;98539.19;5079087;28;20206;-79
2022/04/08 05:49:42;;;;;;;0.70;0.70;;;;;;;3.12;94.55;98526.31;5088935;28;20232;-78
2022/04/08 05:52:09;;;;;;;1.37;0.90;;;;;;;3.20;94.66;98524.41;5100412;28;20238;-79
2022/04/08 05:54:35;;;;;;;1.60;0.70;;;;;;;3.32;94.40;98538.78;5099077;28;20682;-79
2022/04/08 05:57:01;;;;;;;1.80;0.93;;;;;;;3.38;93.28;98570.47;5098973;28;20238;-79
2022/04/08 05:59:43;;;;;;;;;;;;;;;;;;;;;
2022/04/08 06:02:20;;;;;;;1.70;1.33;;;;;;;3.57;92.43;98614.78;5063799;28;20225;-73
2022/04/08 06:04:47;;;;;;;5.00;1.27;;;;;;;3.69;91.46;98624.03;5059851;28;20219;-73
2022/04/08 06:07:13;;;;;;;6.07;1.10;;;;;;;3.72;90.24;98662.63;5053443;28;20270;-72
2022/04/08 06:09:40;;;;;;;1.70;1.00;;;;;;;3.81;90.67;98666.78;5047094;28;20235;-73
2022/04/08 06:12:07;;;;;;;3.07;1.07;;;;;;;3.81;88.38;98705.50;5033389;28;20331;-72
2022/04/08 06:14:34;;;;;;;2.90;1.00;;;;;;;3.87;88.32;98746.66;5032732;28;20869;-72
2022/04/08 06:17:01;;;;;;;2.10;1.00;;;;;;;3.84;87.96;98744.13;5035541;28;20206;-73
2022/04/08 06:19:27;;;;;;;1.70;1.00;;;;;;;3.88;88.05;98744.94;5041228;28;20268;-73
2022/04/08 06:21:54;;;;;;;3.23;0.97;;;;;;;3.90;87.44;98768.97;5032990;28;20494;-73
2022/04/08 06:24:21;;;;;;;2.87;0.87;;;;;;;3.88;86.88;98783.66;5032736;28;20209;-73
2022/04/08 06:26:47;;;;;;;4.60;0.90;;;;;;;3.85;87.52;98778.56;5032653;28;20671;-73
2022/04/08 06:29:14;;;;;;;4.00;0.83;;;;;;;3.85;86.65;98794.88;5031973;28;20288;-73
2022/04/08 06:31:42;;;;;;;5.23;1.10;;;;;;;3.75;87.53;98786.47;5033606;28;20206;-73
2022/04/08 06:34:08;;;;;;;2.90;1.13;;;;;;;3.46;87.48;98804.16;5044108;28;20204;-73
2022/04/08 06:36:35;;;;;;;5.00;1.30;;;;;;;3.43;88.89;98762.94;5043464;28;20206;-73
2022/04/08 06:39:01;;;;;;;3.30;1.30;;;;;;;3.43;90.09;98727.72;5052251;28;20208;-71
2022/04/08 06:41:28;;;;;;;5.60;1.30;;;;;;;3.53;90.87;98692.28;5052523;28;20204;-73
2022/04/08 06:43:54;;;;;;;6.90;1.40;;;;;;;3.70;90.76;98682.47;5052458;28;20208;-74
2022/04/08 06:46:21;;;;;;;5.03;1.10;;;;;;;3.84;90.17;98691.69;5054453;28;20213;-78
2022/04/08 06:48:49;;;;;;;3.27;1.13;;;;;;;3.95;89.47;98726.72;5052128;28;20296;-74
2022/04/08 06:51:16;;;;;;;4.23;1.13;;;;;;;4.07;87.63;98776.41;5035288;28;20222;-74
2022/04/08 06:53:42;;;;;;;3.53;1.30;;;;;;;4.24;89.02;98753.69;5032274;28;20209;-74
2022/04/08 06:56:09;;;;;;;4.47;1.20;;;;;;;4.17;87.77;98778.78;5032465;28;20278;-74
2022/04/08 06:58:38;;;;;;;2.73;1.30;;;;;;;4.20;88.68;98756.34;5032152;28;20207;-75
2022/04/08 07:01:06;;;;;;;4.53;1.53;;;;;;;3.98;88.77;98764.53;5031983;28;20234;-74
2022/04/08 07:03:32;;;;;;;5.73;1.70;;;;;;;3.86;89.13;98763.03;5032229;28;20234;-74
2022/04/08 07:06:03;;;;;;;4.20;1.50;;;;;;;3.91;89.28;98735.41;5031887;28;20667;-73
2022/04/08 07:08:29;;;;;;;4.03;2.10;;;;;;;3.99;88.74;98748.16;5050726;28;20570;-74
2022/04/08 07:10:57;;;;;;;5.17;2.43;;;;;;;4.10;88.80;98758.25;5048432;28;20701;-74
2022/04/08 07:13:23;;;;;;;9.13;1.90;;;;;;;4.20;87.81;98771.84;5051647;28;20201;-74
2022/04/08 07:15:50;;;;;;;5.73;1.77;;;;;;;4.34;87.61;98788.78;5051290;28;20205;-74
2022/04/08 07:18:16;;;;;;;2.77;1.80;;;;;;;4.46;87.25;98799.72;5046623;28;20665;-74
2022/04/08 07:20:42;;;;;;;5.73;1.70;;;;;;;4.53;86.93;98820.25;5047825;28;20217;-74
2022/04/08 07:23:10;;;;;;;5.23;2.00;;;;;;;4.61;86.16;98833.00;5051526;28;20201;-74
2022/04/08 07:25:38;;;;;;;6.00;1.80;;;;;;;4.68;85.81;98860.44;5048370;28;20701;-74
2022/04/08 07:28:06;;;;;;;3.17;1.80;;;;;;;4.77;85.46;98872.31;5051314;28;20201;-74
2022/04/08 07:30:32;;;;;;;3.90;1.60;;;;;;;4.85;84.46;98885.06;5051319;28;20217;-74
2022/04/08 07:33:08;;;;;;;4.63;1.90;;;;;;;4.81;82.79;98961.00;5051215;28;20811;-74
2022/04/08 07:35:44;;;;;;;5.37;1.97;;;;;;;4.82;82.41;98971.31;5047591;28;20263;-75
2022/04/08 07:38:12;;;;;;;4.47;1.60;;;;;;;4.97;81.73;99003.75;5050770;28;20216;-75
2022/04/08 07:40:39;;;;;;;3.47;1.40;;;;;;;4.90;81.31;99022.88;5053684;28;20279;-75
2022/04/08 07:43:06;;;;;;;2.80;2.17;;;;;;;4.92;81.66;99013.34;5055254;28;20202;-74
2022/04/08 07:45:32;;;;;;;3.20;1.40;;;;;;;4.86;80.29;99032.41;5055352;28;20262;-75
2022/04/08 07:47:59;;;;;;;4.10;1.93;;;;;;;4.83;80.82;99047.13;5052996;28;20329;-74
2022/04/08 07:50:27;;;;;;;4.73;1.57;;;;;;;4.85;79.73;99064.31;5050773;28;20240;-74
2022/04/08 07:52:53;;;;;;;3.90;1.67;;;;;;;4.81;78.47;99103.16;5055322;28;20267;-74
2022/04/08 07:55:24;;;;;;;8.17;1.93;;;;;;;4.83;78.45;99132.44;5055382;28;20628;-77
2022/04/08 07:57:52;;;;;;;4.73;2.60;;;;;;;4.85;78.43;99136.69;5055827;28;20593;-76
2022/04/08 08:00:21;;;;;;;6.70;1.53;;;;;;;4.80;76.67;99168.66;5058230;28;20232;-73
2022/04/08 08:02:48;;;;;;;5.83;1.57;;;;;;;4.88;78.61;99153.91;5059174;28;20244;-75
2022/04/08 08:05:15;;;;;;;3.27;1.60;;;;;;;4.97;79.30;99122.69;5062636;28;20280;-75
2022/04/08 08:07:47;;;;;;;6.27;2.10;;;;;;;5.14;78.46;99119.81;5056834;28;20212;-75
2022/04/08 08:10:18;;;;;;;6.47;1.83;;;;;;;5.21;77.69;99157.63;5045566;28;20241;-76
2022/04/08 08:12:46;;;;;;;3.77;1.40;;;;;;;5.35;78.60;99137.53;5035425;28;20256;-74
2022/04/08 08:15:13;;;;;;;4.93;2.03;;;;;;;5.42;77.64;99176.25;5034747;28;20350;-74
2022/04/08 08:17:42;;;;;;;8.00;1.70;;;;;;;5.47;76.88;99200.28;5051131;28;20205;-74
2022/04/08 08:20:10;;;;;;;7.53;2.10;;;;;;;5.49;77.88;99157.13;5042167;28;20217;-74
2022/04/08 08:22:37;;;;;;;5.73;1.60;;;;;;;5.38;77.00;99183.19;5054562;28;20214;-75
2022/04/08 08:25:04;;;;;;;3.90;1.50;;;;;;;5.37;76.45;99194.41;5053890;28;20689;-74
2022/04/08 08:27:37;;;;;;;4.53;2.30;;;;;;;5.48;76.81;99202.00;5054820;28;20202;-75
2022/04/08 08:30:07;;;;;;;5.50;1.57;;;;;;;5.56;75.08;99244.13;5054646;28;20244;-74
2022/04/08 08:32:33;;;;;;;1.83;1.30;;;;;;;5.69;72.42;99250.78;5054906;28;20816;-73
2022/04/08 08:35:00;;;;;;;4.00;1.73;;;;;;;5.77;73.88;99287.75;5054359;28;20795;-73
2022/04/08 08:37:26;;;;;;;5.90;1.40;;;;;;;5.73;73.19;99304.22;5054338;28;20251;-74
2022/04/08 08:39:55;;;;;;;6.13;2.07;;;;;;;5.53;72.33;99345.09;5053688;28;20299;-73
2022/04/08 08:42:23;;;;;;;4.80;1.80;;;;;;;5.59;72.30;99357.97;5054611;28;20259;-72
2022/04/08 08:44:49;;;;;;;6.07;1.50;;;;;;;5.67;72.05;99340.59;5054648;28;20205;-73
2022/04/08 08:47:18;;;;;;;2.73;1.50;;;;;;;5.76;73.65;99334.38;5054932;28;20709;-74
2022/04/08 08:49:48;;;;;;;3.53;1.40;;;;;;;5.75;72.33;99324.94;5038271;28;20225;-74
2022/04/08 08:52:15;;;;;;;3.80;1.87;;;;;;;5.88;71.73;99347.13;5054429;28;20196;-73
2022/04/08 08:54:42;;;;;;;4.43;1.23;;;;;;;5.88;69.44;99382.53;5054416;28;20209;-73
2022/04/08 08:57:10;;;;;;;3.60;1.27;;;;;;;5.82;68.72;99432.69;5054497;28;20205;-73
2022/04/08 08:59:37;;;;;;;4.73;1.40;;;;;;;5.84;67.92;99454.22;5054412;28;20355;-72
2022/04/08 09:02:04;;;;;;;3.70;1.40;;;;;;;6.00;69.91;99452.28;5054214;28;20213;-73
2022/04/08 09:04:32;;;;;;;4.10;1.50;;;;;;;6.13;68.45;99463.31;5053883;28;20201;-73
2022/04/08 09:06:58;;;;;;;4.83;1.63;;;;;;;6.36;69.42;99437.84;5054300;28;20210;-73
2022/04/08 09:09:31;;;;;;;2.60;1.30;;;;;;;6.28;65.91;99493.28;5054317;28;20229;-72
2022/04/08 09:11:58;;;;;;;2.77;1.57;;;;;;;6.25;66.77;99501.97;5054113;28;20251;-73
2022/04/08 09:14:30;;;;;;;2.73;1.70;;;;;;;6.26;67.77;99498.47;5053991;28;20247;-73
2022/04/08 09:17:02;;;;;;;3.73;1.77;;;;;;;6.24;67.82;99487.28;5053924;28;20202;-74
2022/04/08 09:19:34;;;;;;;3.67;1.67;;;;;;;6.29;68.02;99463.91;5043845;28;20710;-74
2022/04/08 09:22:01;;;;;;;2.80;1.90;;;;;;;6.23;67.43;99489.94;5033982;28;20194;-73
2022/04/08 09:24:28;;;;;;;2.83;1.53;;;;;;;6.32;67.18;99489.75;5033995;28;20256;-74
2022/04/08 09:26:56;;;;;;;2.83;1.50;;;;;;;6.34;65.89;99498.34;5034599;28;20198;-74
2022/04/08 09:29:23;;;;;;;2.37;1.17;;;;;;;6.39;64.65;99529.41;5033743;28;20276;-73
2022/04/08 09:31:51;;;;;;;3.77;1.50;;;;;;;6.43;62.40;99578.56;5033844;28;20268;-74
2022/04/08 09:34:17;;;;;;;3.47;1.47;;;;;;;6.62;64.49;99580.84;5034224;28;20206;-73
2022/04/08 09:36:45;;;;;;;2.27;1.50;;;;;;;6.64;63.80;99587.75;5033906;28;20204;-74
2022/04/08 09:39:12;;;;;;;2.23;1.43;;;;;;;6.63;63.04;99590.34;5033777;28;20202;-74
2022/04/08 09:41:39;;;;;;;3.80;1.67;;;;;;;6.74;63.56;99609.19;5033862;28;20285;-74
2022/04/08 09:44:07;;;;;;;3.07;1.93;;;;;;;6.95;64.17;99585.44;5033113;28;20213;-74
2022/04/08 09:46:34;;;;;;;3.47;1.40;;;;;;;7.09;63.59;99600.78;5033925;28;20214;-74
2022/04/08 09:49:01;;;;;;;5.00;1.73;;;;;;;7.07;64.22;99591.31;5050830;28;20292;-74
2022/04/08 09:51:33;;;;;;;3.23;1.40;;;;;;;7.11;63.68;99596.41;5035235;28;20231;-74
2022/04/08 09:54:02;;;;;;;2.80;1.40;;;;;;;7.02;61.29;99619.94;5033052;28;20844;-74
2022/04/08 09:56:29;;;;;;;2.90;1.53;;;;;;;7.18;61.88;99628.31;5033244;28;20296;-74
2022/04/08 09:59:02;;;;;;;6.00;1.90;;;;;;;7.31;63.04;99606.44;5033575;28;20271;-74
2022/04/08 10:01:29;;;;;;;3.30;1.63;;;;;;;7.39;62.57;99603.66;5033324;28;20214;-74
2022/04/08 10:03:56;;;;;;;4.47;1.60;;;;;;;7.14;61.90;99596.38;5033509;28;20263;-74
2022/04/08 10:06:24;;;;;;;2.30;1.60;;;;;;;7.11;61.43;99629.28;4337210;28;10000793;-73
2022/04/08 10:08:51;;;;;;;4.13;1.37;;;;;;;7.12;63.09;99594.69;5030850;28;20284;-73
2022/04/08 10:11:25;;;;;;;3.83;1.73;;;;;;;7.28;64.46;99549.38;5029730;28;20745;-74
2022/04/08 10:14:00;;;;;;;3.37;1.40;;;;;;;7.23;59.23;99595.31;5030036;28;20210;-73
2022/04/08 10:16:27;;;;;;;3.03;1.57;;;;;;;7.33;60.75;99654.00;5030239;28;20280;-74
2022/04/08 10:18:55;;;;;;;2.93;1.70;;;;;;;7.42;59.99;99660.75;5046040;28;20259;-73
2022/04/08 10:21:21;;;;;;;4.83;2.27;;;;;;;7.52;61.41;99612.09;5032470;28;20221;-73
2022/04/08 10:23:50;;;;;;;4.80;2.20;;;;;;;7.33;59.92;99634.94;5029332;28;20206;-73
2022/04/08 10:26:20;;;;;;;2.67;1.50;;;;;;;7.40;59.28;99648.69;5030351;28;20214;-73
2022/04/08 10:28:47;;;;;;;4.73;2.03;;;;;;;7.32;58.98;99667.00;5030616;28;20210;-74
2022/04/08 10:31:15;;;;;;;4.20;1.53;;;;;;;7.40;59.15;99680.69;5030864;28;20260;-74
2022/04/08 10:33:50;;;;;;;3.23;1.40;;;;;;;7.46;59.78;99651.16;5030699;28;20213;-74
2022/04/08 10:36:17;;;;;;;1.90;1.30;;;;;;;7.53;56.70;99715.06;5030327;28;20287;-73
2022/04/08 10:38:43;;;;;;;3.67;1.20;;;;;;;7.71;56.48;99745.91;5030398;28;20202;-74
2022/04/08 10:41:11;;;;;;;2.23;1.00;;;;;;;7.94;55.42;99765.41;5029707;28;20264;-73
2022/04/08 10:43:49;;;;;;;2.53;1.30;;;;;;;8.11;56.99;99768.53;5029497;28;20301;-73
2022/04/08 10:46:29;;;;;;;2.87;1.40;;;;;;;8.34;56.75;99743.81;5029560;28;20210;-74
2022/04/08 10:48:56;;;;;;;1.83;1.20;;;;;;;8.05;53.18;99823.25;5045774;28;20306;-73
2022/04/08 10:51:23;;;;;;;3.57;1.20;;;;;;;7.85;54.37;99847.00;5031736;28;20229;-74
2022/04/08 10:53:51;;;;;;;2.67;1.13;;;;;;;7.72;55.69;99816.91;5029738;28;20205;-74
2022/04/08 10:56:17;;;;;;;4.47;1.50;;;;;;;7.62;54.36;99834.38;5029810;28;20213;-73
2022/04/08 10:58:45;;;;;;;2.17;1.13;;;;;;;7.42;54.84;99810.50;5029588;28;20206;-73
2022/04/08 11:01:18;;;;;;;2.40;1.73;;;;;;;7.38;53.36;99803.63;5028660;28;20731;-73
2022/04/08 11:03:47;;;;;;;5.43;2.00;;;;;;;7.34;53.55;99845.22;5029779;28;20260;-73
2022/04/08 11:06:15;;;;;;;1.13;0.90;;;;;;;7.29;53.29;99831.44;5029304;28;20213;-73
2022/04/08 11:08:43;;;;;;;1.53;1.20;;;;;;;7.25;54.71;99821.97;5029463;28;20237;-74
2022/04/08 11:11:10;;;;;;;2.30;1.17;;;;;;;7.23;56.99;99765.78;5029163;28;20287;-74
2022/04/08 11:13:36;;;;;;;3.47;1.43;;;;;;;7.34;54.44;99790.69;5029328;28;20248;-74
2022/04/08 11:16:04;;;;;;;3.67;1.20;;;;;;;7.31;55.17;99756.13;5029143;28;20287;-74
2022/04/08 11:18:32;;;;;;;3.90;1.07;;;;;;;7.34;54.52;99774.28;5034313;28;20210;-75
2022/04/08 11:20:58;;;;;;;4.07;1.10;;;;;;;7.26;54.32;99743.25;5034773;28;20229;-73
2022/04/08 11:23:26;;;;;;;1.93;1.27;;;;;;;7.39;53.17;99784.56;5029275;28;20202;-74
2022/04/08 11:25:53;;;;;;;1.73;1.63;;;;;;;7.35;52.52;99841.75;5029099;28;20206;-74
2022/04/08 11:28:22;;;;;;;3.30;1.13;;;;;;;7.52;54.04;99825.88;5029094;28;20214;-74
2022/04/08 11:30:55;;;;;;;2.57;1.27;;;;;;;7.74;54.64;99783.97;5029589;28;20238;-74
2022/04/08 11:33:22;;;;;;;2.87;0.90;;;;;;;8.00;53.44;99800.81;5029409;28;20213;-74
2022/04/08 11:35:57;;;;;;;3.97;1.00;;;;;;;7.97;51.32;99864.13;5029109;28;20221;-74
2022/04/08 11:38:25;;;;;;;4.97;1.30;;;;;;;8.16;50.47;99883.66;5029138;28;20671;-74
2022/04/08 11:40:52;;;;;;;4.00;1.10;;;;;;;7.88;50.37;99921.44;5029445;28;20258;-73
2022/04/08 11:43:19;;;;;;;2.77;1.10;;;;;;;8.06;50.00;99921.13;5029071;28;20982;-74
2022/04/08 11:45:47;;;;;;;2.40;1.40;;;;;;;8.23;51.31;99894.84;5029044;28;20214;-74